createdAt,value
2022-07-29T00:03:43.259Z,18.40
2022-07-29T00:09:11.588Z,18.40
2022-07-29T00:14:56.364Z,18.40
2022-07-29T00:20:31.894Z,18.40
2022-07-29T00:26:08.852Z,18.34
2022-07-29T00:31:39.479Z,18.20
2022-07-29T00:37:22.085Z,18.10
2022-07-29T00:43:02.761Z,18.10
2022-07-29T00:48:39.802Z,18.10
2022-07-29T00:54:08.865Z,18.10
2022-07-29T00:59:45.496Z,18.10
2022-07-29T01:05:21.354Z,18.10
2022-07-29T01:10:50.440Z,18.02
2022-07-29T01:16:51.609Z,18.00
2022-07-29T01:22:54.296Z,17.98
2022-07-29T01:29:12.559Z,18.00
2022-07-29T01:34:54.584Z,18.00
2022-07-29T01:40:37.369Z,18.00
2022-07-29T01:46:22.297Z,17.90
2022-07-29T01:52:06.256Z,17.80
2022-07-29T01:57:40.753Z,17.70
2022-07-29T02:03:37.983Z,17.60
2022-07-29T02:09:11.621Z,17.60
2022-07-29T02:14:44.262Z,17.70
2022-07-29T02:20:14.816Z,17.80
2022-07-29T02:26:10.291Z,17.80
2022-07-29T02:31:43.380Z,17.88
2022-07-29T02:37:17.781Z,17.90
2022-07-29T02:42:50.805Z,18.00
2022-07-29T02:49:12.214Z,18.00
2022-07-29T02:55:28.930Z,17.98
2022-07-29T03:01:04.798Z,18.00
2022-07-29T03:07:23.247Z,17.90
2022-07-29T03:13:14.136Z,17.90
2022-07-29T03:18:54.455Z,17.90
2022-07-29T03:24:33.613Z,17.90
2022-07-29T03:29:56.362Z,18.00
2022-07-29T03:35:22.099Z,18.06
2022-07-29T03:41:02.419Z,18.10
2022-07-29T03:47:16.674Z,18.10
2022-07-29T03:53:01.351Z,18.06
2022-07-29T03:58:37.629Z,18.10
2022-07-29T04:04:14.494Z,18.10
2022-07-29T04:09:42.447Z,18.20
2022-07-29T04:15:32.026Z,18.34
2022-07-29T04:21:01.932Z,18.52
2022-07-29T04:26:42.919Z,18.60
2022-07-29T04:32:13.245Z,18.50
2022-07-29T04:37:35.849Z,18.50
2022-07-29T04:43:21.238Z,18.54
2022-07-29T04:48:50.926Z,18.60
2022-07-29T04:54:37.012Z,18.52
2022-07-29T05:00:13.085Z,18.58
2022-07-29T05:05:43.308Z,18.60
2022-07-29T05:11:21.299Z,18.64
2022-07-29T05:16:50.581Z,18.80
2022-07-29T05:22:15.073Z,18.90
2022-07-29T05:27:56.416Z,19.02
2022-07-29T05:33:35.835Z,19.14
2022-07-29T05:39:01.287Z,19.28
2022-07-29T05:44:40.929Z,19.40
2022-07-29T05:50:09.885Z,19.60
2022-07-29T05:55:35.394Z,19.80
2022-07-29T06:01:06.775Z,19.90
2022-07-29T06:06:35.468Z,20.20
2022-07-29T06:12:02.215Z,20.34
2022-07-29T06:17:35.302Z,20.50
2022-07-29T06:22:59.813Z,20.70
2022-07-29T06:28:39.144Z,20.80
2022-07-29T06:34:05.124Z,20.90
2022-07-29T06:39:42.774Z,21.10
2022-07-29T06:45:17.293Z,21.30
2022-07-29T06:50:40.917Z,21.50
2022-07-29T06:56:09.464Z,21.64
2022-07-29T07:01:34.561Z,21.70
2022-07-29T07:06:56.950Z,21.70
2022-07-29T07:12:22.209Z,21.84
2022-07-29T07:17:59.485Z,22.30
2022-07-29T07:23:21.596Z,22.40
2022-07-29T07:28:43.481Z,22.60
2022-07-29T07:34:16.493Z,22.60
2022-07-29T07:39:50.453Z,22.80
2022-07-29T07:45:16.456Z,23.00
2022-07-29T07:50:38.950Z,23.02
2022-07-29T07:56:21.181Z,23.20
2022-07-29T08:01:47.957Z,23.30
2022-07-29T08:07:21.283Z,23.60
2022-07-29T08:12:43.485Z,23.70
2022-07-29T08:18:08.732Z,23.90
2022-07-29T08:23:51.498Z,24.00
2022-07-29T08:29:37.972Z,24.20
2022-07-29T08:35:02.185Z,24.40
2022-07-29T08:40:30.766Z,24.60
2022-07-29T08:45:57.969Z,24.80
2022-07-29T08:51:24.394Z,24.90
2022-07-29T08:56:52.640Z,25.08
2022-07-29T09:02:30.784Z,25.08
2022-07-29T09:07:54.234Z,25.00
2022-07-29T09:13:16.542Z,24.92
2022-07-29T09:18:48.651Z,24.92
2022-07-29T09:24:14.286Z,25.00
2022-07-29T09:29:38.188Z,25.30
2022-07-29T09:35:24.324Z,25.50
2022-07-29T09:41:09.110Z,25.60
2022-07-29T09:46:33.971Z,25.60
2022-07-29T09:52:10.040Z,25.52
2022-07-29T09:57:34.642Z,25.52
2022-07-29T10:03:02.695Z,25.68
2022-07-29T10:08:38.785Z,25.80
2022-07-29T10:14:06.787Z,25.90
2022-07-29T10:19:32.193Z,26.10
2022-07-29T10:24:55.114Z,26.34
2022-07-29T10:30:22.228Z,26.50
2022-07-29T10:35:58.925Z,26.60
2022-07-29T10:42:01.828Z,26.80
2022-07-29T10:47:35.133Z,26.90
2022-07-29T10:53:00.647Z,27.00
2022-07-29T10:58:25.312Z,27.00
2022-07-29T11:03:53.645Z,27.10
2022-07-29T11:09:35.223Z,27.30
2022-07-29T11:15:03.439Z,27.34
2022-07-29T11:20:39.457Z,27.24
2022-07-29T11:26:26.466Z,27.20
2022-07-29T11:31:57.108Z,27.00
2022-07-29T11:37:28.042Z,26.90
2022-07-29T11:42:53.589Z,26.90
2022-07-29T11:48:29.098Z,27.10
2022-07-29T11:54:04.415Z,27.30
2022-07-29T11:59:49.244Z,27.50
2022-07-29T12:05:22.239Z,27.40
2022-07-29T12:11:01.483Z,27.30
2022-07-29T12:16:26.091Z,27.20
2022-07-29T12:22:12.502Z,27.00
2022-07-29T12:27:46.137Z,26.80
2022-07-29T12:33:22.369Z,26.60
2022-07-29T12:38:47.820Z,26.50
2022-07-29T12:44:10.740Z,26.30
2022-07-29T12:49:41.489Z,26.10
2022-07-29T12:55:04.827Z,26.00
2022-07-29T13:00:26.959Z,25.90
2022-07-29T13:05:51.686Z,26.00
2022-07-29T13:11:30.528Z,25.92
2022-07-29T13:17:10.189Z,25.96
2022-07-29T13:22:32.582Z,26.10
2022-07-29T13:27:59.915Z,26.30
2022-07-29T13:33:31.440Z,26.40
2022-07-29T13:39:52.822Z,26.40
2022-07-29T13:45:39.134Z,26.40
2022-07-29T13:51:02.405Z,26.54
2022-07-29T13:56:27.567Z,26.70
2022-07-29T14:01:49.584Z,27.00
2022-07-29T14:07:16.346Z,27.20
2022-07-29T14:12:39.379Z,27.30
2022-07-29T14:18:02.595Z,27.40
2022-07-29T14:23:24.399Z,27.30
2022-07-29T14:28:50.409Z,27.20
2022-07-29T14:34:12.861Z,27.30
2022-07-29T14:39:42.772Z,27.30
2022-07-29T14:45:09.382Z,27.30
2022-07-29T14:50:32.304Z,27.28
2022-07-29T14:55:54.359Z,27.30
2022-07-29T15:01:19.016Z,27.10
2022-07-29T15:06:40.835Z,27.02
2022-07-29T15:12:08.281Z,27.00
2022-07-29T15:17:33.559Z,26.90
2022-07-29T15:23:01.685Z,26.80
2022-07-29T15:28:24.501Z,26.70
2022-07-29T15:33:46.516Z,26.50
2022-07-29T15:39:08.652Z,26.40
2022-07-29T15:44:30.718Z,26.30
2022-07-29T15:49:55.456Z,26.14
2022-07-29T15:55:17.357Z,26.00
2022-07-29T16:00:39.542Z,25.90
2022-07-29T16:06:02.219Z,25.80
2022-07-29T16:11:24.055Z,25.76
2022-07-29T16:16:46.389Z,25.70
2022-07-29T16:22:08.869Z,25.60
2022-07-29T16:27:31.409Z,25.50
2022-07-29T16:33:00.228Z,25.40
2022-07-29T16:38:23.053Z,25.30
2022-07-29T16:43:45.763Z,25.20
2022-07-29T16:49:07.855Z,25.00
2022-07-29T16:54:29.869Z,24.80
2022-07-29T16:59:52.779Z,24.70
2022-07-29T17:05:16.088Z,24.60
2022-07-29T17:10:38.109Z,24.50
2022-07-29T17:16:00.776Z,24.40
2022-07-29T17:21:24.855Z,24.40
2022-07-29T17:26:50.356Z,24.30
2022-07-29T17:32:12.610Z,24.30
2022-07-29T17:37:37.932Z,24.20
2022-07-29T17:43:00.289Z,24.10
2022-07-29T17:48:23.177Z,23.90
2022-07-29T17:53:47.003Z,23.80
2022-07-29T17:59:10.366Z,23.72
2022-07-29T18:04:32.523Z,23.70
2022-07-29T18:10:00.057Z,23.60
2022-07-29T18:15:23.252Z,23.44
2022-07-29T18:20:48.791Z,23.24
2022-07-29T18:26:11.040Z,23.06
2022-07-29T18:31:33.760Z,22.80
2022-07-29T18:36:56.369Z,22.50
2022-07-29T18:42:18.516Z,22.30
2022-07-29T18:47:40.546Z,22.10
2022-07-29T18:53:05.038Z,21.90
2022-07-29T18:58:33.135Z,21.80
2022-07-29T19:03:54.893Z,21.60
2022-07-29T19:09:22.739Z,21.50
2022-07-29T19:14:44.870Z,21.40
2022-07-29T19:20:08.489Z,21.30
2022-07-29T19:25:31.424Z,21.28
2022-07-29T19:31:00.826Z,21.20
2022-07-29T19:36:27.852Z,21.10
2022-07-29T19:41:49.964Z,21.10
2022-07-29T19:47:19.301Z,21.04
2022-07-29T19:52:41.607Z,20.98
2022-07-29T19:58:06.915Z,20.80
2022-07-29T20:03:33.727Z,20.60
2022-07-29T20:08:58.768Z,20.50
2022-07-29T20:14:21.716Z,20.30
2022-07-29T20:19:43.984Z,20.20
2022-07-29T20:25:10.107Z,20.00
2022-07-29T20:30:34.333Z,20.00
2022-07-29T20:36:08.536Z,20.00
2022-07-29T20:41:30.370Z,19.90
2022-07-29T20:46:57.636Z,19.80
2022-07-29T20:52:20.088Z,19.80
2022-07-29T20:57:41.746Z,19.90
2022-07-29T21:03:04.410Z,19.90
2022-07-29T21:08:29.503Z,20.00
2022-07-29T21:13:54.324Z,20.00
2022-07-29T21:19:16.886Z,19.90
2022-07-29T21:24:42.188Z,19.80
2022-07-29T21:30:08.547Z,19.80
2022-07-29T21:36:06.356Z,19.80
2022-07-29T21:41:14.984Z,19.80
2022-07-29T21:46:45.273Z,19.80
2022-07-29T21:52:08.917Z,19.80
2022-07-29T21:57:32.057Z,19.70
2022-07-29T22:03:07.953Z,19.70
2022-07-29T22:08:30.180Z,19.70
2022-07-29T22:13:52.368Z,19.70
2022-07-29T22:19:15.500Z,19.78
2022-07-29T22:25:00.537Z,19.80
2022-07-29T22:30:30.339Z,19.88
2022-07-29T22:35:52.565Z,19.90
2022-07-29T22:41:14.848Z,19.90
2022-07-29T22:46:38.193Z,19.88
2022-07-29T22:52:00.523Z,19.80
2022-07-29T22:57:22.379Z,19.80
2022-07-29T23:02:44.581Z,19.70
2022-07-29T23:08:30.357Z,19.80
2022-07-29T23:14:29.947Z,19.76
2022-07-29T23:20:02.165Z,19.70
2022-07-29T23:25:44.328Z,19.60
2022-07-29T23:31:13.773Z,19.60
2022-07-29T23:36:38.883Z,19.40
2022-07-29T23:42:09.970Z,19.40
2022-07-29T23:47:32.644Z,19.36
2022-07-29T23:53:13.395Z,19.30
2022-07-29T23:58:40.300Z,19.20
